Time;durP1;ratioP1;P1;durP2;ratioP2;P2;SDS_P1;SDS_P2;PMS_P1;PMS_P2;Temp;Humidity;BMP_temperature;BMP_pressure;BME280_temperature;BME280_humidity;BME280_pressure;Samples;Min_cycle;Max_cycle;Signal;HPM_P1;HPM_P2
2023/06/23 00:00:13;;;;;;;1.27;0.75;;;20.90;99.90;;;;;;4993391;28;20293;-67
2023/06/23 00:02:42;;;;;;;2.67;1.05;;;20.90;99.90;;;;;;4992147;28;20076;-67
2023/06/23 00:05:11;;;;;;;1.92;0.98;;;20.90;99.90;;;;;;4992015;28;20034;-67
2023/06/23 00:07:37;;;;;;;3.25;0.98;;;20.90;99.90;;;;;;4993404;28;20386;-67
2023/06/23 00:10:05;;;;;;;3.33;1.63;;;20.90;99.90;;;;;;4991673;28;20496;-67
2023/06/23 00:12:35;;;;;;;6.78;2.10;;;20.90;99.90;;;;;;4992024;28;20030;-67
2023/06/23 00:15:07;;;;;;;2.67;1.20;;;20.80;99.90;;;;;;4992322;28;20085;-68
2023/06/23 00:17:33;;;;;;;2.30;1.15;;;20.80;99.90;;;;;;4991798;28;20402;-68
2023/06/23 00:19:59;;;;;;;2.17;1.30;;;20.90;99.90;;;;;;4992884;28;20046;-68
2023/06/23 00:22:27;;;;;;;3.58;1.60;;;20.90;99.90;;;;;;4992923;28;20117;-68
2023/06/23 00:24:54;;;;;;;3.17;1.23;;;20.90;99.90;;;;;;4992987;28;20053;-68
2023/06/23 00:27:19;;;;;;;3.05;1.15;;;21.00;99.90;;;;;;4991632;28;20394;-68
2023/06/23 00:29:46;;;;;;;3.60;1.65;;;21.00;99.90;;;;;;4991707;28;20030;-68
2023/06/23 00:32:12;;;;;;;3.17;1.58;;;21.00;99.90;;;;;;4991820;28;20109;-69
2023/06/23 00:34:37;;;;;;;5.53;1.98;;;21.00;99.90;;;;;;4992744;28;20443;-68
2023/06/23 00:37:03;;;;;;;5.18;1.55;;;21.00;99.90;;;;;;4991877;28;20030;-68
2023/06/23 00:39:29;;;;;;;5.15;1.95;;;21.10;99.90;;;;;;4991436;28;20044;-69
2023/06/23 00:41:56;;;;;;;4.95;1.98;;;21.00;99.90;;;;;;4993197;28;20689;-69
2023/06/23 00:44:21;;;;;;;4.38;2.10;;;21.00;99.90;;;;;;4992604;28;20038;-68
2023/06/23 00:46:47;;;;;;;6.45;2.17;;;21.10;99.90;;;;;;4992740;28;20034;-68
2023/06/23 00:49:15;;;;;;;4.03;1.83;;;21.00;99.90;;;;;;4991443;28;20036;-68
2023/06/23 00:51:41;;;;;;;3.47;1.77;;;21.00;99.90;;;;;;4992482;28;20026;-68
2023/06/23 00:54:07;;;;;;;2.88;1.60;;;21.00;99.90;;;;;;4992703;28;20039;-68
2023/06/23 00:56:34;;;;;;;4.70;1.83;;;21.10;99.90;;;;;;4991528;28;20080;-68
2023/06/23 00:58:59;;;;;;;3.33;1.80;;;21.10;99.90;;;;;;4991426;28;20034;-68
2023/06/23 01:01:25;;;;;;;5.40;1.90;;;21.00;99.90;;;;;;4992364;28;20053;-68
2023/06/23 01:03:51;;;;;;;3.83;1.85;;;20.90;99.90;;;;;;4991475;28;20105;-69
2023/06/23 01:06:41;;;;;;;3.60;1.70;;;20.80;99.90;;;;;;4984535;28;20066;-68
2023/06/23 01:09:25;;;;;;;3.22;1.67;;;20.80;99.90;;;;;;5005070;28;20022;-68
2023/06/23 01:12:11;;;;;;;4.50;2.22;;;20.80;99.90;;;;;;5005888;28;20033;-68
2023/06/23 01:15:13;;;;;;;3.20;1.50;;;20.80;99.90;;;;;;4991934;28;20398;-68
2023/06/23 01:18:36;;;;;;;2.80;1.45;;;20.80;99.90;;;;;;4990811;28;20030;-68
2023/06/23 01:21:08;;;;;;;3.50;1.40;;;20.90;99.90;;;;;;4991798;28;20041;-69
2023/06/23 01:24:25;;;;;;;4.38;2.00;;;20.90;99.90;;;;;;4990759;28;20034;-67
2023/06/23 01:27:22;;;;;;;4.00;1.58;;;20.90;99.90;;;;;;4983234;28;20069;-67
2023/06/23 01:29:52;;;;;;;4.55;1.83;;;20.90;99.90;;;;;;4990116;28;20030;-67
2023/06/23 01:32:28;;;;;;;3.53;1.65;;;20.90;99.90;;;;;;4990402;28;20030;-68
2023/06/23 01:35:03;;;;;;;6.25;2.55;;;20.80;99.90;;;;;;4991571;28;20565;-68
2023/06/23 01:37:34;;;;;;;3.58;1.75;;;20.70;99.90;;;;;;4990534;28;20041;-67
2023/06/23 01:40:15;;;;;;;4.60;2.10;;;20.70;99.90;;;;;;4990265;28;20125;-67
2023/06/23 01:42:51;;;;;;;4.47;1.77;;;20.70;99.90;;;;;;4990393;28;20097;-67
2023/06/23 01:45:20;;;;;;;5.00;1.88;;;20.60;99.90;;;;;;4991693;28;20070;-67
2023/06/23 01:47:48;;;;;;;6.38;2.00;;;20.60;99.90;;;;;;4990227;28;20057;-67
2023/06/23 01:50:16;;;;;;;4.97;2.03;;;20.60;99.90;;;;;;4989908;28;20025;-66
2023/06/23 01:52:45;;;;;;;5.30;1.95;;;20.50;99.90;;;;;;4990534;28;20034;-67
2023/06/23 01:55:12;;;;;;;3.22;1.48;;;20.60;99.90;;;;;;4990478;28;20085;-67
2023/06/23 01:57:41;;;;;;;3.75;1.98;;;20.70;99.90;;;;;;4990081;28;20478;-67
2023/06/23 02:00:13;;;;;;;5.38;2.15;;;20.60;99.90;;;;;;4973778;28;20362;-67
2023/06/23 02:02:45;;;;;;;3.85;1.77;;;20.50;99.90;;;;;;4990104;28;20461;-68
2023/06/23 02:05:13;;;;;;;4.20;1.92;;;20.40;99.90;;;;;;4989525;28;20038;-69
2023/06/23 02:07:42;;;;;;;6.18;1.92;;;20.40;99.90;;;;;;4991338;28;20081;-68
2023/06/23 02:10:10;;;;;;;4.38;1.67;;;20.40;99.90;;;;;;4989566;28;20561;-68
2023/06/23 02:12:41;;;;;;;5.35;2.55;;;20.30;99.90;;;;;;4974059;28;20041;-68
2023/06/23 02:15:09;;;;;;;6.65;2.20;;;20.30;99.90;;;;;;4991185;28;20089;-70
2023/06/23 02:17:36;;;;;;;4.38;2.35;;;20.30;99.90;;;;;;4991394;28;20062;-68
2023/06/23 02:20:12;;;;;;;5.38;2.13;;;20.30;99.90;;;;;;4989966;28;20027;-69
2023/06/23 02:22:38;;;;;;;5.53;2.00;;;20.20;99.90;;;;;;4991301;28;20494;-69
2023/06/23 02:25:05;;;;;;;3.78;2.00;;;20.20;99.90;;;;;;4990200;28;20049;-69
2023/06/23 02:27:31;;;;;;;3.88;2.10;;;20.20;99.90;;;;;;4989885;28;20494;-69
2023/06/23 02:29:58;;;;;;;3.95;1.73;;;20.30;99.90;;;;;;4989854;28;20030;-69
2023/06/23 02:32:25;;;;;;;3.47;2.13;;;20.30;99.90;;;;;;4990009;28;20026;-69
2023/06/23 02:34:51;;;;;;;3.80;1.77;;;20.30;99.90;;;;;;4989895;28;20073;-69
2023/06/23 02:37:23;;;;;;;3.63;1.98;;;20.40;99.90;;;;;;4998320;28;20084;-69
2023/06/23 02:39:58;;;;;;;3.95;1.92;;;20.40;99.90;;;;;;5026419;28;20033;-69
2023/06/23 02:42:32;;;;;;;5.07;2.58;;;20.30;99.90;;;;;;5029257;28;20068;-69
2023/06/23 02:45:03;;;;;;;7.88;2.40;;;20.30;99.90;;;;;;5029311;28;20042;-69
2023/06/23 02:47:34;;;;;;;4.55;2.53;;;20.30;99.90;;;;;;5029243;28;20569;-69
2023/06/23 02:50:05;;;;;;;6.13;2.15;;;20.30;99.90;;;;;;5028989;28;20474;-68
2023/06/23 02:52:34;;;;;;;5.25;2.15;;;20.30;99.90;;;;;;5029352;28;20042;-69
2023/06/23 02:55:04;;;;;;;5.38;1.95;;;20.30;99.90;;;;;;5014129;28;20366;-68
2023/06/23 02:57:31;;;;;;;5.00;2.45;;;20.30;99.90;;;;;;5014298;28;20041;-68
2023/06/23 03:00:00;;;;;;;5.22;2.40;;;20.40;99.90;;;;;;5028949;28;20026;-69
2023/06/23 03:02:28;;;;;;;7.30;2.90;;;20.40;99.90;;;;;;5028990;28;20026;-68
2023/06/23 03:04:57;;;;;;;4.95;2.53;;;20.40;99.90;;;;;;5043629;23;20038;-65
2023/06/23 03:07:24;;;;;;;4.82;2.22;;;20.40;99.90;;;;;;5021906;28;20042;-65
2023/06/23 03:09:50;;;;;;;4.70;2.30;;;20.40;99.90;;;;;;5013599;28;20106;-65
2023/06/23 03:12:16;;;;;;;8.27;3.17;;;20.40;99.90;;;;;;5012575;28;20037;-65
2023/06/23 03:14:44;;;;;;;6.07;2.65;;;20.40;99.90;;;;;;5013621;28;20101;-65
2023/06/23 03:17:17;;;;;;;5.20;2.45;;;20.40;99.90;;;;;;4996411;28;20409;-65
2023/06/23 03:20:00;;;;;;;4.47;2.58;;;20.30;99.90;;;;;;4996337;28;20048;-65
2023/06/23 03:22:32;;;;;;;3.60;2.10;;;20.30;99.90;;;;;;4997104;28;20036;-65
2023/06/23 03:25:05;;;;;;;4.97;2.30;;;20.40;99.90;;;;;;4996349;28;20482;-65
2023/06/23 03:27:32;;;;;;;6.85;2.78;;;20.30;99.90;;;;;;4996361;28;20025;-66
2023/06/23 03:30:24;;;;;;;7.18;2.75;;;20.20;99.90;;;;;;4996096;28;20040;-65
2023/06/23 03:32:53;;;;;;;5.53;2.65;;;20.30;99.90;;;;;;4996511;28;20465;-68
2023/06/23 03:35:24;;;;;;;4.78;2.63;;;20.30;99.90;;;;;;4996281;28;20041;-65
2023/06/23 03:37:59;;;;;;;4.80;2.63;;;20.30;99.90;;;;;;4996034;28;20098;-65
2023/06/23 03:40:27;;;;;;;3.55;1.92;;;20.10;99.90;;;;;;4996192;28;20029;-65
2023/06/23 03:43:06;;;;;;;5.13;2.50;;;20.20;99.90;;;;;;4996047;28;20116;-65
2023/06/23 03:45:34;;;;;;;9.07;3.28;;;20.20;99.90;;;;;;4996235;28;20129;-65
2023/06/23 03:48:05;;;;;;;6.30;2.65;;;20.10;99.90;;;;;;5013135;28;20037;-65
2023/06/23 03:50:35;;;;;;;6.22;2.70;;;20.20;99.90;;;;;;4995857;28;20026;-65
2023/06/23 03:53:04;;;;;;;5.30;2.83;;;20.10;99.90;;;;;;4995087;28;20024;-65
2023/06/23 03:55:33;;;;;;;5.68;2.50;;;20.10;99.90;;;;;;4995577;28;20030;-65
2023/06/23 03:58:06;;;;;;;5.43;3.20;;;20.20;99.90;;;;;;4979233;28;20056;-65
2023/06/23 04:00:36;;;;;;;4.88;3.08;;;20.10;99.90;;;;;;4995388;28;20121;-65
2023/06/23 04:03:06;;;;;;;6.30;3.38;;;20.10;99.90;;;;;;4995512;28;20030;-66
2023/06/23 04:05:33;;;;;;;7.32;3.60;;;20.20;99.90;;;;;;4995348;28;20034;-65
2023/06/23 04:08:00;;;;;;;9.60;3.53;;;20.30;99.90;;;;;;4995254;28;20038;-65
2023/06/23 04:10:28;;;;;;;8.10;3.85;;;20.30;99.90;;;;;;4995184;28;20492;-66
2023/06/23 04:12:55;;;;;;;5.10;3.03;;;20.10;99.90;;;;;;4979168;28;20033;-65
2023/06/23 04:15:25;;;;;;;8.63;4.13;;;19.90;99.90;;;;;;4995144;28;20029;-65
2023/06/23 04:17:55;;;;;;;7.95;3.72;;;19.70;99.90;;;;;;5027903;28;20052;-65
2023/06/23 04:20:23;;;;;;;10.35;4.05;;;19.60;99.90;;;;;;5012547;28;20083;-65
2023/06/23 04:22:51;;;;;;;9.63;4.78;;;19.50;99.90;;;;;;5012507;28;20366;-63
2023/06/23 04:25:20;;;;;;;8.55;4.30;;;19.50;99.90;;;;;;5027486;28;20038;-61
2023/06/23 04:27:51;;;;;;;10.52;4.13;;;19.40;99.90;;;;;;5027584;28;20034;-61
2023/06/23 04:30:19;;;;;;;7.50;4.10;;;19.20;99.90;;;;;;5027005;28;20025;-61
2023/06/23 04:32:45;;;;;;;9.50;4.28;;;19.20;99.90;;;;;;5027303;28;20113;-61
2023/06/23 04:35:11;;;;;;;9.55;4.00;;;19.20;99.90;;;;;;5012243;28;20041;-61
2023/06/23 04:37:56;;;;;;;8.05;4.45;;;19.30;99.90;;;;;;5027532;28;20441;-61
2023/06/23 04:40:53;;;;;;;8.38;4.50;;;19.30;99.90;;;;;;4993159;28;20036;-61
2023/06/23 04:43:31;;;;;;;7.72;3.70;;;19.40;99.90;;;;;;5012191;28;20026;-61
2023/06/23 04:46:08;;;;;;;7.93;4.00;;;19.50;99.90;;;;;;5026512;28;20032;-61
2023/06/23 04:48:45;;;;;;;8.35;4.30;;;19.60;99.90;;;;;;5026763;28;20049;-61
2023/06/23 04:51:13;;;;;;;8.20;4.15;;;19.60;99.90;;;;;;5026317;28;20323;-61
2023/06/23 04:53:56;;;;;;;9.35;4.07;;;19.60;99.90;;;;;;5026900;28;20022;-61
2023/06/23 04:56:25;;;;;;;8.30;4.22;;;19.60;99.90;;;;;;5026669;28;20676;-61
2023/06/23 04:58:57;;;;;;;11.30;4.55;;;19.70;99.90;;;;;;5026570;28;20473;-61
2023/06/23 05:01:24;;;;;;;11.13;4.25;;;19.70;99.90;;;;;;5026911;28;20441;-60
2023/06/23 05:03:53;;;;;;;13.07;4.30;;;19.60;99.90;;;;;;5025614;28;20030;-60
2023/06/23 05:06:22;;;;;;;9.80;4.65;;;19.50;99.90;;;;;;5026682;28;20057;-61
2023/06/23 05:08:51;;;;;;;10.90;4.03;;;19.60;99.90;;;;;;5026456;28;20118;-61
2023/06/23 05:11:18;;;;;;;7.97;4.30;;;19.60;99.90;;;;;;5026672;28;20087;-61
2023/06/23 05:13:46;;;;;;;10.38;5.75;;;19.70;99.90;;;;;;5011565;28;20038;-61
2023/06/23 05:16:14;;;;;;;8.40;4.10;;;19.70;99.90;;;;;;5011365;28;20041;-61
2023/06/23 05:18:41;;;;;;;8.70;4.18;;;19.80;99.90;;;;;;5011316;28;20160;-61
2023/06/23 05:21:09;;;;;;;8.48;4.10;;;19.90;99.90;;;;;;4993874;28;20037;-61
2023/06/23 05:23:40;;;;;;;7.35;3.55;;;19.90;99.90;;;;;;4994029;28;20030;-61
2023/06/23 05:26:10;;;;;;;7.18;3.65;;;19.80;99.90;;;;;;5011395;28;20148;-61
2023/06/23 05:28:39;;;;;;;9.32;4.45;;;19.80;99.90;;;;;;5011329;28;20037;-60
2023/06/23 05:31:07;;;;;;;11.80;4.78;;;19.90;99.90;;;;;;4993549;28;20026;-61
2023/06/23 05:33:37;;;;;;;6.97;3.85;;;19.90;99.90;;;;;;4993567;28;20099;-61
2023/06/23 05:36:07;;;;;;;6.03;3.70;;;20.00;99.90;;;;;;5011210;28;20052;-61
2023/06/23 05:38:36;;;;;;;8.05;4.07;;;20.00;99.90;;;;;;4993940;28;21010;-61
2023/06/23 05:41:02;;;;;;;8.30;3.90;;;20.10;99.90;;;;;;4993474;28;20085;-61
2023/06/23 05:43:28;;;;;;;7.28;3.40;;;20.10;99.90;;;;;;4993534;28;20125;-61
2023/06/23 05:45:57;;;;;;;10.95;4.25;;;20.10;99.90;;;;;;5010831;28;20104;-61
2023/06/23 05:48:42;;;;;;;8.77;4.90;;;20.10;99.90;;;;;;4993737;28;20037;-61
2023/06/23 05:51:13;;;;;;;5.75;2.80;;;20.10;99.90;;;;;;4992942;28;20037;-61
2023/06/23 05:53:41;;;;;;;6.93;3.22;;;20.00;99.90;;;;;;5011115;28;20034;-61
2023/06/23 05:56:32;;;;;;;6.35;2.92;;;20.10;99.90;;;;;;5010834;28;20033;-61
2023/06/23 05:59:06;;;;;;;5.60;3.42;;;20.10;99.90;;;;;;5011159;28;20041;-61
2023/06/23 06:01:39;;;;;;;7.07;3.65;;;20.10;99.90;;;;;;5018214;28;20497;-61
2023/06/23 06:04:13;;;;;;;6.30;3.33;;;20.10;99.90;;;;;;4990204;28;20033;-61
2023/06/23 06:06:40;;;;;;;6.20;2.85;;;20.20;99.90;;;;;;4990033;28;20042;-61
2023/06/23 06:09:11;;;;;;;7.32;3.30;;;20.10;99.90;;;;;;4990467;28;20030;-61
2023/06/23 06:11:40;;;;;;;6.43;3.63;;;20.10;99.90;;;;;;4989856;28;20031;-61
2023/06/23 06:14:08;;;;;;;6.07;3.28;;;20.10;99.90;;;;;;4990206;28;20038;-61
2023/06/23 06:16:37;;;;;;;4.95;2.40;;;20.20;99.90;;;;;;4995194;28;20028;-61
2023/06/23 06:19:03;;;;;;;4.15;2.60;;;20.20;99.90;;;;;;4994071;28;20112;-61
2023/06/23 06:21:32;;;;;;;6.55;3.47;;;20.20;99.90;;;;;;4993786;28;20109;-61
2023/06/23 06:23:59;;;;;;;4.45;2.33;;;20.30;99.90;;;;;;4995368;28;20115;-61
2023/06/23 06:26:26;;;;;;;4.53;2.80;;;20.30;99.90;;;;;;4994612;28;20593;-53
2023/06/23 06:28:54;;;;;;;6.05;2.47;;;20.40;99.90;;;;;;4997384;28;20030;-54
2023/06/23 06:31:22;;;;;;;6.68;2.72;;;20.50;99.90;;;;;;5014411;28;20101;-53
2023/06/23 06:33:53;;;;;;;4.93;2.33;;;20.60;99.90;;;;;;5014856;28;20485;-55
2023/06/23 06:36:21;;;;;;;4.80;2.45;;;20.70;99.90;;;;;;4994183;28;20097;-61
2023/06/23 06:38:50;;;;;;;6.03;2.45;;;20.80;99.90;;;;;;5010165;28;20030;-65
2023/06/23 06:41:16;;;;;;;5.55;2.72;;;20.80;99.90;;;;;;4994377;28;20452;-65
2023/06/23 06:43:44;;;;;;;3.55;2.28;;;20.80;99.90;;;;;;5039226;28;20117;-65
2023/06/23 06:46:11;;;;;;;4.80;2.38;;;21.00;99.90;;;;;;5006241;28;20042;-66
2023/06/23 06:48:38;;;;;;;4.05;2.33;;;21.10;99.90;;;;;;5013123;28;20026;-66
2023/06/23 06:51:06;;;;;;;4.68;2.17;;;21.30;99.90;;;;;;5029119;28;20597;-65
2023/06/23 06:53:32;;;;;;;9.23;3.00;;;21.20;99.90;;;;;;5029514;28;20018;-66
2023/06/23 06:55:59;;;;;;;3.22;2.08;;;21.20;99.90;;;;;;5012756;28;20129;-65
2023/06/23 06:58:26;;;;;;;7.32;2.95;;;21.00;99.90;;;;;;5013777;28;20036;-66
2023/06/23 07:00:53;;;;;;;5.00;1.92;;;21.00;99.90;;;;;;5013856;28;20486;-65
2023/06/23 07:03:19;;;;;;;6.95;2.05;;;21.10;99.90;;;;;;5029446;28;20057;-65
2023/06/23 07:05:45;;;;;;;4.97;2.55;;;21.10;99.90;;;;;;5013783;28;20042;-66
2023/06/23 07:08:11;;;;;;;6.63;2.42;;;21.00;99.90;;;;;;5013870;28;20034;-66
2023/06/23 07:10:38;;;;;;;4.90;2.20;;;21.10;99.90;;;;;;5013786;28;20022;-65
2023/06/23 07:13:04;;;;;;;3.92;2.53;;;21.20;99.90;;;;;;5013776;28;20482;-65
2023/06/23 07:15:30;;;;;;;4.13;2.20;;;21.20;99.90;;;;;;5013498;28;20040;-65
2023/06/23 07:17:56;;;;;;;5.55;2.20;;;21.20;99.90;;;;;;5028785;28;20065;-66
2023/06/23 07:20:21;;;;;;;3.90;2.10;;;21.10;99.90;;;;;;5006899;28;20022;-65
2023/06/23 07:22:48;;;;;;;7.75;2.35;;;21.30;99.90;;;;;;5002572;28;20145;-65
2023/06/23 07:25:14;;;;;;;3.13;1.85;;;21.30;99.90;;;;;;5004191;28;20489;-65
2023/06/23 07:27:40;;;;;;;4.53;1.90;;;21.30;99.90;;;;;;5002839;28;20068;-70
2023/06/23 07:30:06;;;;;;;7.47;2.50;;;21.20;99.90;;;;;;5013128;28;20057;-65
2023/06/23 07:32:32;;;;;;;3.47;1.80;;;21.20;99.90;;;;;;5007627;28;20034;-66
2023/06/23 07:34:58;;;;;;;3.38;2.00;;;21.30;99.90;;;;;;5013343;28;20449;-65
2023/06/23 07:37:23;;;;;;;5.05;2.13;;;21.30;99.90;;;;;;5028741;28;20034;-66
2023/06/23 07:39:49;;;;;;;3.65;2.35;;;21.30;99.90;;;;;;5011900;28;20352;-65
2023/06/23 07:42:15;;;;;;;3.88;2.00;;;21.30;99.90;;;;;;5035663;28;20080;-66
2023/06/23 07:44:41;;;;;;;3.85;2.20;;;21.40;99.90;;;;;;5010826;28;20105;-66
2023/06/23 07:47:07;;;;;;;3.83;2.22;;;21.60;99.90;;;;;;5011945;28;20129;-66
2023/06/23 07:49:33;;;;;;;3.17;1.65;;;21.70;99.90;;;;;;5012241;28;20506;-66
2023/06/23 07:52:04;;;;;;;3.13;1.67;;;21.70;99.90;;;;;;5028297;28;20060;-66
2023/06/23 07:54:31;;;;;;;4.47;1.90;;;21.80;99.90;;;;;;5010320;28;20026;-66
2023/06/23 07:56:57;;;;;;;3.28;1.83;;;21.80;99.90;;;;;;5029643;28;20041;-66
2023/06/23 07:59:26;;;;;;;3.85;1.88;;;21.80;99.90;;;;;;5018243;28;20340;-66
2023/06/23 08:01:56;;;;;;;4.20;1.75;;;21.90;99.90;;;;;;5032117;28;20029;-66
2023/06/23 08:04:22;;;;;;;3.15;1.63;;;22.00;99.90;;;;;;5038349;28;20056;-67
2023/06/23 08:06:48;;;;;;;4.07;1.90;;;22.20;99.90;;;;;;5011781;28;20113;-65
2023/06/23 08:09:15;;;;;;;4.80;1.90;;;22.40;99.90;;;;;;5023564;28;20042;-66
2023/06/23 08:11:41;;;;;;;6.53;2.47;;;22.40;99.90;;;;;;5026230;28;20512;-66
2023/06/23 08:14:07;;;;;;;5.22;1.85;;;22.40;99.90;;;;;;5031495;28;20022;-66
2023/06/23 08:16:33;;;;;;;5.88;1.90;;;22.30;99.90;;;;;;5011783;28;20128;-66
2023/06/23 08:18:59;;;;;;;3.10;1.50;;;22.20;99.90;;;;;;5011573;28;20442;-66
2023/06/23 08:21:24;;;;;;;5.70;2.25;;;22.10;99.90;;;;;;5011489;28;20141;-64
2023/06/23 08:23:50;;;;;;;3.53;1.55;;;22.20;99.90;;;;;;5011636;28;20120;-64
2023/06/23 08:26:18;;;;;;;4.93;2.20;;;22.10;99.90;;;;;;5011452;28;20084;-64
2023/06/23 08:28:44;;;;;;;4.00;1.95;;;22.20;99.90;;;;;;4993819;28;20040;-64
2023/06/23 08:31:10;;;;;;;5.43;2.42;;;22.20;99.90;;;;;;5011105;28;20034;-64
2023/06/23 08:33:37;;;;;;;9.18;2.58;;;22.20;99.60;;;;;;5011641;28;20018;-64
2023/06/23 08:36:04;;;;;;;4.72;2.13;;;22.20;99.80;;;;;;5011110;28;20026;-64
2023/06/23 08:38:29;;;;;;;3.03;1.48;;;22.30;99.60;;;;;;5015863;28;20559;-65
2023/06/23 08:40:57;;;;;;;8.35;2.53;;;22.40;99.40;;;;;;5010881;28;20042;-65
2023/06/23 08:43:26;;;;;;;5.70;2.25;;;22.50;99.40;;;;;;5013709;28;20439;-65
2023/06/23 08:45:56;;;;;;;6.50;2.13;;;22.60;98.90;;;;;;5030621;28;20021;-65
2023/06/23 08:48:28;;;;;;;4.38;1.92;;;22.60;98.10;;;;;;5031081;28;20043;-65
2023/06/23 08:51:00;;;;;;;5.25;2.05;;;22.60;98.60;;;;;;5013098;28;20034;-65
2023/06/23 08:53:26;;;;;;;3.05;1.83;;;22.70;98.60;;;;;;4994183;28;20054;-65
2023/06/23 08:55:54;;;;;;;3.58;1.42;;;22.70;99.10;;;;;;5011641;28;20033;-66
2023/06/23 08:58:22;;;;;;;6.35;2.35;;;22.90;98.80;;;;;;5011112;28;20037;-65
2023/06/23 09:00:52;;;;;;;4.43;2.05;;;23.00;98.90;;;;;;4992928;28;20029;-65
2023/06/23 09:03:20;;;;;;;3.78;1.80;;;23.10;98.60;;;;;;5026397;28;20040;-66
2023/06/23 09:05:46;;;;;;;4.10;2.08;;;23.00;98.30;;;;;;4993721;28;20048;-67
2023/06/23 09:08:13;;;;;;;4.70;2.10;;;22.70;98.60;;;;;;5023684;23;20053;-67
2023/06/23 09:10:40;;;;;;;5.35;2.05;;;22.70;98.40;;;;;;5001156;28;20070;-68
2023/06/23 09:13:18;;;;;;;3.33;1.80;;;22.70;98.90;;;;;;4991702;28;20089;-68
2023/06/23 09:15:46;;;;;;;4.63;2.25;;;22.80;99.10;;;;;;4991738;28;20122;-73
2023/06/23 09:18:14;;;;;;;3.42;1.83;;;22.90;98.60;;;;;;4991757;28;20029;-67
2023/06/23 09:20:46;;;;;;;3.58;1.77;;;22.90;98.20;;;;;;4991562;28;20038;-68
2023/06/23 09:23:18;;;;;;;6.35;1.85;;;23.00;98.50;;;;;;4991875;28;20085;-66
2023/06/23 09:26:04;;;;;;;3.80;1.70;;;23.30;98.30;;;;;;4990058;28;20062;-68
2023/06/23 09:28:36;;;;;;;3.75;1.60;;;23.50;97.70;;;;;;4991302;28;20031;-68
2023/06/23 09:31:16;;;;;;;3.13;1.60;;;23.50;97.40;;;;;;4989873;28;20034;-68
2023/06/23 09:33:52;;;;;;;3.53;1.70;;;23.50;97.80;;;;;;4988261;28;20031;-69
2023/06/23 09:36:19;;;;;;;4.18;1.83;;;23.50;97.70;;;;;;4974088;28;20038;-68
2023/06/23 09:38:46;;;;;;;4.30;1.73;;;23.50;97.20;;;;;;4989469;28;20085;-68
2023/06/23 09:41:17;;;;;;;4.18;1.70;;;23.60;97.10;;;;;;4991250;28;20030;-68
2023/06/23 09:43:50;;;;;;;3.33;1.55;;;23.60;97.30;;;;;;4991633;28;20057;-68
2023/06/23 09:46:19;;;;;;;3.55;1.73;;;23.70;97.10;;;;;;5006258;28;20352;-69
2023/06/23 09:48:51;;;;;;;7.32;1.70;;;23.80;96.70;;;;;;4991182;28;20119;-68
2023/06/23 09:51:20;;;;;;;4.93;1.73;;;24.00;96.20;;;;;;4990282;28;20037;-69
2023/06/23 09:53:47;;;;;;;4.50;1.77;;;24.10;95.90;;;;;;4991418;28;20038;-69
2023/06/23 09:56:19;;;;;;;3.15;1.35;;;24.10;96.30;;;;;;4989770;28;20034;-68
2023/06/23 09:58:48;;;;;;;2.40;1.40;;;24.20;95.90;;;;;;4989982;28;20038;-68
2023/06/23 10:01:19;;;;;;;2.17;1.35;;;24.10;96.10;;;;;;4996485;28;20030;-69
2023/06/23 10:03:49;;;;;;;2.08;1.25;;;24.10;95.40;;;;;;4991084;28;20039;-68
2023/06/23 10:06:32;;;;;;;2.30;1.52;;;24.20;95.40;;;;;;4991276;28;20088;-69
2023/06/23 10:09:00;;;;;;;3.10;1.50;;;24.20;95.50;;;;;;4989593;28;20513;-69
2023/06/23 10:11:40;;;;;;;2.72;1.10;;;24.40;95.50;;;;;;4989551;28;20038;-69
2023/06/23 10:14:11;;;;;;;21.30;2.63;;;24.10;95.00;;;;;;5003577;28;20562;-69
2023/06/23 10:16:46;;;;;;;2.25;1.10;;;23.90;95.20;;;;;;5004126;28;20034;-69
2023/06/23 10:19:12;;;;;;;2.60;1.63;;;23.90;94.70;;;;;;4989435;28;20471;-68
2023/06/23 10:21:40;;;;;;;3.38;1.48;;;24.30;94.80;;;;;;4989384;28;20482;-70
2023/06/23 10:24:10;;;;;;;2.63;1.25;;;24.70;94.30;;;;;;4991142;28;20495;-69
2023/06/23 10:26:37;;;;;;;3.45;1.83;;;24.80;94.00;;;;;;4991389;28;20068;-69
2023/06/23 10:29:10;;;;;;;3.85;1.50;;;24.80;93.80;;;;;;4993417;28;20054;-69
2023/06/23 10:31:37;;;;;;;3.92;1.58;;;24.80;93.50;;;;;;5004608;28;20034;-68
2023/06/23 10:34:07;;;;;;;3.10;1.40;;;25.10;93.10;;;;;;4989531;28;20069;-68
2023/06/23 10:36:39;;;;;;;2.17;0.98;;;25.30;92.70;;;;;;4989893;28;20030;-68
2023/06/23 10:39:06;;;;;;;2.92;1.48;;;25.10;92.50;;;;;;4989493;28;20049;-68
2023/06/23 10:41:34;;;;;;;1.90;1.20;;;25.00;92.90;;;;;;5005555;28;20201;-67
2023/06/23 10:44:02;;;;;;;3.85;1.50;;;25.00;93.10;;;;;;5005642;28;20031;-68
2023/06/23 10:46:28;;;;;;;2.92;1.38;;;25.10;93.20;;;;;;5005556;28;20061;-67
2023/06/23 10:48:54;;;;;;;4.00;1.58;;;25.20;92.80;;;;;;4990536;28;20038;-65
2023/06/23 10:51:22;;;;;;;3.08;1.65;;;24.90;92.60;;;;;;5005355;28;20026;-67
2023/06/23 10:54:07;;;;;;;2.95;1.40;;;24.70;92.90;;;;;;5005422;28;20030;-66
2023/06/23 10:56:39;;;;;;;6.13;1.58;;;24.80;93.20;;;;;;5004879;28;20045;-65
2023/06/23 10:59:29;;;;;;;2.70;1.30;;;25.20;92.80;;;;;;4992644;28;20041;-65
2023/06/23 11:02:01;;;;;;;3.28;1.77;;;25.50;91.40;;;;;;5012921;28;20026;-64
2023/06/23 11:04:32;;;;;;;3.40;1.45;;;25.40;91.80;;;;;;5013621;28;20053;-67
2023/06/23 11:07:16;;;;;;;;;;;25.40;92.00;;;;;;5013121;28;20679;-66
2023/06/23 11:10:02;;;;;;;2.15;1.48;;;25.50;91.60;;;;;;4996383;28;19914;-68
2023/06/23 11:12:41;;;;;;;7.13;1.60;;;25.50;91.00;;;;;;4994454;28;20837;-68
2023/06/23 11:15:20;;;;;;;3.92;1.80;;;25.50;91.00;;;;;;4994047;28;20037;-66
2023/06/23 11:18:07;;;;;;;3.15;1.17;;;25.50;91.20;;;;;;4994154;28;20089;-68
2023/06/23 11:20:43;;;;;;;4.35;1.55;;;25.60;90.80;;;;;;4993790;28;20034;-67
2023/06/23 11:23:12;;;;;;;6.78;2.05;;;26.10;90.20;;;;;;4994363;28;20037;-67
2023/06/23 11:25:47;;;;;;;2.63;1.38;;;26.50;89.80;;;;;;4993226;28;20049;-67
2023/06/23 11:28:36;;;;;;;2.42;1.10;;;26.60;88.70;;;;;;4992837;28;20026;-66
2023/06/23 11:31:20;;;;;;;3.08;1.27;;;26.70;88.30;;;;;;5000415;28;20153;-49
2023/06/23 11:33:54;;;;;;;2.80;1.30;;;26.50;88.70;;;;;;4993569;28;20502;-48
2023/06/23 11:36:23;;;;;;;2.75;1.40;;;26.70;89.40;;;;;;4993800;28;20117;-50
2023/06/23 11:38:50;;;;;;;1.92;1.00;;;26.90;87.20;;;;;;4991922;28;20030;-47
2023/06/23 11:41:28;;;;;;;3.33;1.45;;;26.90;86.10;;;;;;4993386;28;20037;-50
2023/06/23 11:44:02;;;;;;;3.13;1.50;;;27.20;86.20;;;;;;4992339;28;20041;-48
2023/06/23 11:46:33;;;;;;;3.90;1.52;;;27.30;85.60;;;;;;4991924;28;20031;-49
2023/06/23 11:49:11;;;;;;;3.60;1.73;;;27.10;82.70;;;;;;4993103;28;20413;-45
2023/06/23 11:51:38;;;;;;;3.75;1.85;;;27.00;85.00;;;;;;4972683;28;20070;-44
2023/06/23 11:54:06;;;;;;;2.30;1.20;;;26.90;84.90;;;;;;4956964;28;20026;-48
2023/06/23 11:56:32;;;;;;;8.15;1.48;;;26.80;83.00;;;;;;4972510;28;20100;-47
2023/06/23 11:59:03;;;;;;;3.85;1.30;;;26.90;83.00;;;;;;4973941;28;20027;-44
2023/06/23 12:01:28;;;;;;;3.00;1.42;;;27.10;83.30;;;;;;4972605;28;20042;-70
2023/06/23 12:03:54;;;;;;;3.47;1.75;;;27.20;84.10;;;;;;4973694;28;20035;-71
2023/06/23 12:06:22;;;;;;;3.03;1.30;;;27.50;84.50;;;;;;4973583;28;20398;-71
2023/06/23 12:08:49;;;;;;;3.60;1.58;;;27.50;82.50;;;;;;4980208;28;20049;-71
2023/06/23 12:11:19;;;;;;;2.63;1.30;;;27.10;82.50;;;;;;5007348;28;20380;-71
2023/06/23 12:13:48;;;;;;;2.67;1.57;;;26.80;83.70;;;;;;4992277;28;20121;-71
2023/06/23 12:16:15;;;;;;;3.55;1.40;;;27.00;82.80;;;;;;5007006;28;20282;-71
2023/06/23 12:18:44;;;;;;;1.90;1.23;;;26.80;83.00;;;;;;4993040;28;20494;-71
2023/06/23 12:21:10;;;;;;;3.57;1.47;;;26.90;79.80;;;;;;4991264;28;20034;-70
2023/06/23 12:23:37;;;;;;;2.33;1.30;;;27.00;80.00;;;;;;4992846;28;20309;-72
2023/06/23 12:26:06;;;;;;;2.97;1.50;;;27.30;80.90;;;;;;4991249;28;20034;-71
2023/06/23 12:28:32;;;;;;;3.55;1.30;;;27.60;79.70;;;;;;4992519;28;20049;-72
2023/06/23 12:30:58;;;;;;;2.60;1.00;;;27.80;80.20;;;;;;4992513;28;20030;-71
2023/06/23 12:33:27;;;;;;;2.63;1.38;;;28.20;78.80;;;;;;5007590;28;20497;-70
2023/06/23 12:36:02;;;;;;;2.85;1.40;;;28.40;77.70;;;;;;5009614;28;20061;-71
2023/06/23 12:38:30;;;;;;;2.08;1.02;;;28.40;75.10;;;;;;5007203;28;20030;-70
2023/06/23 12:41:26;;;;;;;3.00;1.17;;;28.60;74.70;;;;;;5007234;28;20023;-71
2023/06/23 12:44:03;;;;;;;6.03;1.20;;;28.70;74.50;;;;;;4992392;28;20061;-71
2023/06/23 12:46:31;;;;;;;4.43;1.65;;;28.60;75.00;;;;;;4992549;28;20105;-71
2023/06/23 12:48:56;;;;;;;1.98;1.10;;;28.20;76.20;;;;;;5007133;28;20117;-71
2023/06/23 12:51:33;;;;;;;2.75;1.20;;;27.90;76.70;;;;;;5007083;28;20191;-71
2023/06/23 12:54:00;;;;;;;3.33;1.25;;;27.40;75.70;;;;;;4992390;28;20034;-72
2023/06/23 12:56:27;;;;;;;2.72;1.48;;;27.30;75.60;;;;;;5007266;28;20030;-71
2023/06/23 12:58:53;;;;;;;2.92;1.33;;;27.60;75.70;;;;;;5006659;28;20869;-72
2023/06/23 13:01:19;;;;;;;2.03;1.33;;;28.10;74.70;;;;;;5026853;28;20528;-71
2023/06/23 13:03:46;;;;;;;2.63;1.30;;;28.20;74.10;;;;;;5026607;28;20034;-71